ITY635 KMCO-LIMC
Flight info
| Callsign | ITY635 |
|---|---|
| Flight time | N/A |
| Altitude | 37000 |
| Route | FATHE4 VIYAP Q87 JROSS Q135 RAPZZ PRONI PUNGO PHITZ DWSEN KW54A PREPI KB63C MONTK VITOL NANSO N55B RAFIN 4550N 4740N 4730N 4720N 4715N SEPAL UN470 LAPEX GALOF PECNO VALKU TIS MEBAK GIPNO BALSI GIGUS MEDAM LAPRI MOGBO TOP M135 ASTIG |
| Aircraft | A359/H-SABDE2E3FGHIJ1J4J5M1P2RWXYZ/LB1D1 |
Departure
| Time | 2026-04-25 13:12 |
|---|---|
| Airport | Orlando International Airport (KMCO) |
Arrival
| Time | N/A |
|---|---|
| Airport | Milan Malpensa International Airport (LIMC) |
| Time | Latitude | Longitude | Altitude | Speed | Heading |
|---|---|---|---|---|---|
| 2026-04-25 11:19 | 28.41101 | -81.31614 | 101 ft | 0 kts | 0° |
| 2026-04-25 12:40 | 28.41099 | -81.31614 | 101 ft | 2 kts | 0° |
| 2026-04-25 12:40 | 28.41074 | -81.31614 | 100 ft | 4 kts | 4° |
| 2026-04-25 12:40 | 28.41046 | -81.31617 | 100 ft | 4 kts | 5° |
| 2026-04-25 12:40 | 28.41020 | -81.31619 | 100 ft | 4 kts | 355° |
| 2026-04-25 12:41 | 28.40999 | -81.31615 | 101 ft | 4 kts | 319° |
| 2026-04-25 12:41 | 28.40994 | -81.31614 | 101 ft | 1 kts | 270° |
| 2026-04-25 12:41 | 28.40994 | -81.31632 | 103 ft | 4 kts | 270° |
| 2026-04-25 12:41 | 28.40994 | -81.31663 | 104 ft | 4 kts | 270° |
| 2026-04-25 12:42 | 28.40994 | -81.31669 | 103 ft | 0 kts | 270° |
| 2026-04-25 12:44 | 28.40994 | -81.31726 | 103 ft | 11 kts | 270° |
| 2026-04-25 12:45 | 28.40995 | -81.31800 | 101 ft | 8 kts | 269° |
| 2026-04-25 12:45 | 28.40994 | -81.31836 | 103 ft | 0 kts | 269° |
| 2026-04-25 12:46 | 28.40994 | -81.31837 | 103 ft | 1 kts | 269° |
| 2026-04-25 12:46 | 28.40998 | -81.31870 | 102 ft | 7 kts | 285° |
| 2026-04-25 12:46 | 28.41042 | -81.31908 | 104 ft | 8 kts | 349° |
| 2026-04-25 12:46 | 28.41102 | -81.31910 | 105 ft | 10 kts | 0° |
| 2026-04-25 12:47 | 28.41193 | -81.31910 | 107 ft | 15 kts | 359° |
| 2026-04-25 12:47 | 28.41312 | -81.31910 | 105 ft | 17 kts | 360° |
| 2026-04-25 12:47 | 28.41438 | -81.31910 | 105 ft | 19 kts | 0° |
| 2026-04-25 12:47 | 28.41521 | -81.31900 | 105 ft | 12 kts | 21° |
| 2026-04-25 12:48 | 28.41611 | -81.31878 | 105 ft | 14 kts | 2° |
| 2026-04-25 12:48 | 28.41706 | -81.31878 | 105 ft | 14 kts | 0° |
| 2026-04-25 12:48 | 28.41811 | -81.31876 | 107 ft | 16 kts | 360° |
| 2026-04-25 12:48 | 28.41922 | -81.31878 | 105 ft | 17 kts | 359° |
| 2026-04-25 12:49 | 28.42047 | -81.31881 | 106 ft | 18 kts | 359° |
| 2026-04-25 12:49 | 28.42166 | -81.31862 | 104 ft | 18 kts | 14° |
| 2026-04-25 12:49 | 28.42292 | -81.31834 | 106 ft | 18 kts | 4° |
| 2026-04-25 12:49 | 28.42422 | -81.31834 | 107 ft | 19 kts | 360° |
| 2026-04-25 12:50 | 28.42559 | -81.31834 | 108 ft | 20 kts | 0° |
| 2026-04-25 12:50 | 28.42689 | -81.31836 | 107 ft | 18 kts | 359° |
| 2026-04-25 12:50 | 28.42809 | -81.31837 | 105 ft | 15 kts | 359° |
| 2026-04-25 12:50 | 28.42922 | -81.31838 | 105 ft | 16 kts | 359° |
| 2026-04-25 12:51 | 28.43036 | -81.31839 | 107 ft | 17 kts | 360° |
| 2026-04-25 12:51 | 28.43159 | -81.31840 | 105 ft | 18 kts | 359° |
| 2026-04-25 12:51 | 28.43282 | -81.31843 | 105 ft | 17 kts | 359° |
| 2026-04-25 12:51 | 28.43408 | -81.31845 | 105 ft | 19 kts | 359° |
| 2026-04-25 12:52 | 28.43542 | -81.31845 | 104 ft | 20 kts | 360° |
| 2026-04-25 12:52 | 28.43677 | -81.31846 | 105 ft | 18 kts | 360° |
| 2026-04-25 12:52 | 28.43804 | -81.31846 | 105 ft | 17 kts | 360° |
| 2026-04-25 12:52 | 28.43889 | -81.31847 | 105 ft | 10 kts | 3° |
| 2026-04-25 12:53 | 28.43922 | -81.31801 | 107 ft | 7 kts | 85° |
| 2026-04-25 12:53 | 28.43922 | -81.31736 | 110 ft | 10 kts | 89° |
| 2026-04-25 12:53 | 28.43923 | -81.31639 | 112 ft | 13 kts | 90° |
| 2026-04-25 12:53 | 28.43924 | -81.31504 | 111 ft | 22 kts | 89° |
| 2026-04-25 12:54 | 28.43931 | -81.31308 | 114 ft | 24 kts | 86° |
| 2026-04-25 12:54 | 28.43939 | -81.31138 | 112 ft | 21 kts | 88° |
| 2026-04-25 12:54 | 28.43943 | -81.30968 | 114 ft | 21 kts | 88° |
| 2026-04-25 12:54 | 28.43939 | -81.30810 | 113 ft | 19 kts | 95° |
| 2026-04-25 12:55 | 28.43928 | -81.30654 | 113 ft | 18 kts | 94° |
| 2026-04-25 12:55 | 28.43922 | -81.30552 | 112 ft | 17 kts | 93° |
| 2026-04-25 12:55 | 28.43915 | -81.30396 | 109 ft | 11 kts | 93° |
| 2026-04-25 12:55 | 28.43912 | -81.30355 | 107 ft | 0 kts | 94° |
| 2026-04-25 13:00 | 28.43910 | -81.30303 | 109 ft | 10 kts | 93° |
| 2026-04-25 13:00 | 28.43905 | -81.30182 | 107 ft | 19 kts | 92° |
| 2026-04-25 13:01 | 28.43896 | -81.30021 | 105 ft | 19 kts | 99° |
| 2026-04-25 13:01 | 28.43850 | -81.29897 | 104 ft | 17 kts | 126° |
| 2026-04-25 13:01 | 28.43758 | -81.29823 | 103 ft | 17 kts | 158° |
| 2026-04-25 13:01 | 28.43659 | -81.29808 | 103 ft | 11 kts | 178° |
| 2026-04-25 13:02 | 28.43625 | -81.29808 | 102 ft | 0 kts | 179° |
| 2026-04-25 13:04 | 28.43613 | -81.29808 | 104 ft | 6 kts | 179° |
| 2026-04-25 13:04 | 28.43561 | -81.29792 | 103 ft | 7 kts | 135° |
| 2026-04-25 13:04 | 28.43549 | -81.29702 | 104 ft | 16 kts | 90° |
| 2026-04-25 13:04 | 28.43549 | -81.29570 | 105 ft | 16 kts | 90° |
| 2026-04-25 13:05 | 28.43550 | -81.29477 | 106 ft | 18 kts | 89° |
| 2026-04-25 13:05 | 28.43556 | -81.29304 | 105 ft | 12 kts | 74° |
| 2026-04-25 13:05 | 28.43621 | -81.29263 | 105 ft | 13 kts | 4° |
| 2026-04-25 13:05 | 28.43720 | -81.29261 | 105 ft | 16 kts | 359° |
| 2026-04-25 13:06 | 28.43839 | -81.29259 | 105 ft | 13 kts | 17° |
| 2026-04-25 13:06 | 28.43871 | -81.29170 | 107 ft | 12 kts | 90° |
| 2026-04-25 13:06 | 28.43871 | -81.29093 | 112 ft | 10 kts | 89° |
| 2026-04-25 13:06 | 28.43872 | -81.28980 | 111 ft | 18 kts | 90° |
| 2026-04-25 13:07 | 28.43873 | -81.28821 | 112 ft | 22 kts | 90° |
| 2026-04-25 13:07 | 28.43873 | -81.28661 | 107 ft | 23 kts | 89° |
| 2026-04-25 13:07 | 28.43875 | -81.28486 | 104 ft | 21 kts | 89° |
| 2026-04-25 13:07 | 28.43900 | -81.28385 | 104 ft | 10 kts | 31° |
| 2026-04-25 13:08 | 28.43989 | -81.28381 | 103 ft | 17 kts | 359° |
| 2026-04-25 13:08 | 28.44112 | -81.28380 | 103 ft | 17 kts | 360° |
| 2026-04-25 13:08 | 28.44240 | -81.28382 | 103 ft | 17 kts | 359° |
| 2026-04-25 13:08 | 28.44315 | -81.28383 | 104 ft | 8 kts | 359° |
| 2026-04-25 13:09 | 28.44332 | -81.28383 | 103 ft | 3 kts | 2° |
| 2026-04-25 13:09 | 28.44352 | -81.28360 | 105 ft | 6 kts | 64° |
| 2026-04-25 13:09 | 28.44349 | -81.28295 | 105 ft | 7 kts | 105° |
| 2026-04-25 13:09 | 28.44322 | -81.28261 | 105 ft | 7 kts | 160° |
| 2026-04-25 13:10 | 28.44302 | -81.28259 | 104 ft | 0 kts | 178° |
| 2026-04-25 13:11 | 28.44299 | -81.28259 | 105 ft | 6 kts | 178° |
| 2026-04-25 13:11 | 28.44084 | -81.28254 | 105 ft | 67 kts | 179° |
| 2026-04-25 13:12 | 28.43351 | -81.28248 | 103 ft | 142 kts | 179° |
| 2026-04-25 13:12 | 28.42224 | -81.28242 | 575 ft | 167 kts | 181° |
| 2026-04-25 13:12 | 28.41105 | -81.28078 | 1513 ft | 167 kts | 160° |
| 2026-04-25 13:12 | 28.40750 | -81.27870 | 1740 ft | 175 kts | 149° |
| 2026-04-25 13:13 | 28.39848 | -81.25745 | 2581 ft | 192 kts | 89° |
| 2026-04-25 13:13 | 28.40057 | -81.24207 | 2901 ft | 205 kts | 81° |
| 2026-04-25 13:13 | 28.40264 | -81.22541 | 3158 ft | 223 kts | 83° |
| 2026-04-25 13:13 | 28.40453 | -81.20702 | 3379 ft | 245 kts | 83° |
| 2026-04-25 13:14 | 28.40645 | -81.18725 | 3673 ft | 262 kts | 84° |
| 2026-04-25 13:14 | 28.41038 | -81.16708 | 4266 ft | 264 kts | 68° |
| 2026-04-25 13:14 | 28.42040 | -81.14941 | 4890 ft | 266 kts | 43° |
| 2026-04-25 13:14 | 28.43609 | -81.13912 | 5461 ft | 268 kts | 14° |
| 2026-04-25 13:15 | 28.45454 | -81.13928 | 6061 ft | 270 kts | 345° |
| 2026-04-25 13:15 | 28.47164 | -81.14819 | 6611 ft | 273 kts | 320° |
| 2026-04-25 13:15 | 28.48763 | -81.15966 | 7240 ft | 273 kts | 333° |
| 2026-04-25 13:15 | 28.50525 | -81.16764 | 7852 ft | 275 kts | 340° |
| 2026-04-25 13:16 | 28.52354 | -81.17431 | 8452 ft | 277 kts | 341° |
| 2026-04-25 13:16 | 28.54189 | -81.18135 | 9067 ft | 279 kts | 340° |
| 2026-04-25 13:16 | 28.56041 | -81.18831 | 9720 ft | 281 kts | 341° |
| 2026-04-25 13:16 | 28.57908 | -81.19516 | 10250 ft | 286 kts | 341° |
| 2026-04-25 13:17 | 28.59855 | -81.20220 | 10512 ft | 300 kts | 341° |
| 2026-04-25 13:17 | 28.61887 | -81.20948 | 10800 ft | 313 kts | 341° |
| 2026-04-25 13:17 | 28.63278 | -81.21444 | 10976 ft | 321 kts | 341° |
| 2026-04-25 13:17 | 28.65451 | -81.22217 | 11221 ft | 333 kts | 341° |
| 2026-04-25 13:18 | 28.67701 | -81.23017 | 11505 ft | 343 kts | 341° |
| 2026-04-25 13:18 | 28.69996 | -81.23831 | 11938 ft | 347 kts | 341° |
| 2026-04-25 13:18 | 28.72315 | -81.24654 | 12402 ft | 351 kts | 341° |
| 2026-04-25 13:18 | 28.74638 | -81.25479 | 12882 ft | 353 kts | 341° |
| 2026-04-25 13:19 | 28.77009 | -81.26321 | 13377 ft | 355 kts | 341° |
| 2026-04-25 13:19 | 28.79378 | -81.27164 | 13850 ft | 358 kts | 341° |
| 2026-04-25 13:19 | 28.81762 | -81.28013 | 14245 ft | 360 kts | 341° |
| 2026-04-25 13:19 | 28.82568 | -81.28298 | 14386 ft | 361 kts | 341° |
| 2026-04-25 13:20 | 28.84334 | -81.28798 | 14649 ft | 364 kts | 349° |
| 2026-04-25 13:20 | 28.86873 | -81.29118 | 15077 ft | 368 kts | 354° |
| 2026-04-25 13:20 | 28.89428 | -81.29325 | 15474 ft | 370 kts | 354° |
| 2026-04-25 13:20 | 28.92018 | -81.29532 | 15885 ft | 373 kts | 354° |
| 2026-04-25 13:21 | 28.94607 | -81.29745 | 16321 ft | 375 kts | 354° |
| 2026-04-25 13:21 | 28.97222 | -81.29964 | 16748 ft | 378 kts | 354° |
| 2026-04-25 13:21 | 28.99853 | -81.30189 | 17180 ft | 380 kts | 353° |
| 2026-04-25 13:21 | 29.02496 | -81.30453 | 17583 ft | 382 kts | 352° |
| 2026-04-25 13:22 | 29.05152 | -81.30749 | 17992 ft | 385 kts | 352° |
| 2026-04-25 13:22 | 29.07822 | -81.31059 | 18379 ft | 387 kts | 352° |
| 2026-04-25 13:22 | 29.10510 | -81.31372 | 18750 ft | 389 kts | 352° |
| 2026-04-25 13:23 | 29.15899 | -81.31842 | 19443 ft | 394 kts | 355° |
| 2026-04-25 13:23 | 29.18643 | -81.31983 | 19803 ft | 395 kts | 355° |
| 2026-04-25 13:23 | 29.21398 | -81.32112 | 20148 ft | 397 kts | 355° |
| 2026-04-25 13:23 | 29.24166 | -81.32247 | 20503 ft | 399 kts | 355° |
| 2026-04-25 13:24 | 29.26948 | -81.32394 | 20835 ft | 401 kts | 355° |
| 2026-04-25 13:24 | 29.29716 | -81.32549 | 21166 ft | 403 kts | 355° |
| 2026-04-25 13:24 | 29.32547 | -81.32715 | 21517 ft | 405 kts | 355° |
| 2026-04-25 13:24 | 29.35365 | -81.32885 | 21846 ft | 407 kts | 355° |
| 2026-04-25 13:25 | 29.38196 | -81.33057 | 22172 ft | 409 kts | 355° |
| 2026-04-25 13:25 | 29.41052 | -81.33231 | 22499 ft | 411 kts | 355° |
| 2026-04-25 13:25 | 29.43913 | -81.33405 | 22816 ft | 412 kts | 355° |
| 2026-04-25 13:25 | 29.46782 | -81.33578 | 23129 ft | 415 kts | 355° |
| 2026-04-25 13:26 | 29.49675 | -81.33754 | 23440 ft | 417 kts | 355° |
| 2026-04-25 13:26 | 29.52576 | -81.33929 | 23699 ft | 418 kts | 355° |
| 2026-04-25 13:26 | 29.55397 | -81.34099 | 23943 ft | 420 kts | 355° |
| 2026-04-25 13:26 | 29.58317 | -81.34275 | 24203 ft | 422 kts | 355° |
| 2026-04-25 13:27 | 29.61255 | -81.34452 | 24457 ft | 423 kts | 355° |
| 2026-04-25 13:27 | 29.64205 | -81.34630 | 24718 ft | 424 kts | 355° |
| 2026-04-25 13:27 | 29.67160 | -81.34810 | 24969 ft | 426 kts | 356° |
| 2026-04-25 13:27 | 29.70125 | -81.34981 | 25223 ft | 427 kts | 356° |
| 2026-04-25 13:28 | 29.73100 | -81.35148 | 25486 ft | 429 kts | 356° |
| 2026-04-25 13:28 | 29.75071 | -81.35258 | 25662 ft | 429 kts | 356° |
| 2026-04-25 13:28 | 29.79081 | -81.35483 | 26014 ft | 431 kts | 356° |
| 2026-04-25 13:28 | 29.82088 | -81.35653 | 26287 ft | 433 kts | 356° |
| 2026-04-25 13:29 | 29.85062 | -81.35823 | 26549 ft | 434 kts | 356° |
| 2026-04-25 13:29 | 29.88088 | -81.35997 | 26827 ft | 436 kts | 356° |
| 2026-04-25 13:29 | 29.91117 | -81.36171 | 27117 ft | 437 kts | 356° |
| 2026-04-25 13:30 | 29.97218 | -81.36522 | 27704 ft | 440 kts | 356° |
| 2026-04-25 13:30 | 30.00281 | -81.36697 | 28009 ft | 442 kts | 356° |
| 2026-04-25 13:30 | 30.03363 | -81.36875 | 28319 ft | 444 kts | 356° |
| 2026-04-25 13:31 | 30.09531 | -81.37230 | 29209 ft | 440 kts | 357° |
| 2026-04-25 13:31 | 30.12554 | -81.37405 | 29999 ft | 431 kts | 357° |
| 2026-04-25 13:31 | 30.15537 | -81.37578 | 30525 ft | 428 kts | 357° |
| 2026-04-25 13:31 | 30.18510 | -81.37750 | 30940 ft | 427 kts | 357° |
| 2026-04-25 13:32 | 30.21487 | -81.37922 | 31367 ft | 427 kts | 357° |
| 2026-04-25 13:32 | 30.24356 | -81.38088 | 31780 ft | 426 kts | 357° |
| 2026-04-25 13:32 | 30.27322 | -81.38260 | 32207 ft | 425 kts | 357° |
| 2026-04-25 13:32 | 30.30273 | -81.38430 | 32610 ft | 424 kts | 357° |
| 2026-04-25 13:33 | 30.33220 | -81.38601 | 33023 ft | 424 kts | 357° |
| 2026-04-25 13:33 | 30.36165 | -81.38772 | 33414 ft | 423 kts | 357° |
| 2026-04-25 13:33 | 30.39100 | -81.38943 | 33830 ft | 422 kts | 357° |
| 2026-04-25 13:33 | 30.41040 | -81.39056 | 34071 ft | 422 kts | 357° |
| 2026-04-25 13:34 | 30.44957 | -81.39284 | 34545 ft | 420 kts | 356° |
| 2026-04-25 13:34 | 30.47872 | -81.39454 | 34870 ft | 419 kts | 356° |
| 2026-04-25 13:34 | 30.50780 | -81.39614 | 34961 ft | 418 kts | 357° |
| 2026-04-25 13:35 | 30.56592 | -81.39914 | 34982 ft | 418 kts | 357° |
| 2026-04-25 13:35 | 30.62366 | -81.40211 | 34980 ft | 418 kts | 357° |
| 2026-04-25 13:36 | 30.68176 | -81.40516 | 34982 ft | 418 kts | 357° |
| 2026-04-25 13:36 | 30.73986 | -81.40825 | 34976 ft | 418 kts | 357° |
| 2026-04-25 13:37 | 30.79788 | -81.41133 | 34973 ft | 418 kts | 356° |
| 2026-04-25 13:37 | 30.85597 | -81.41442 | 34970 ft | 417 kts | 356° |
| 2026-04-25 13:38 | 30.91408 | -81.41751 | 34958 ft | 417 kts | 356° |
| 2026-04-25 13:38 | 30.97127 | -81.42056 | 34956 ft | 417 kts | 356° |
| 2026-04-25 13:39 | 31.02934 | -81.42366 | 34955 ft | 417 kts | 356° |
| 2026-04-25 13:39 | 31.08705 | -81.42675 | 34953 ft | 417 kts | 356° |
| 2026-04-25 13:40 | 31.14509 | -81.42985 | 34952 ft | 418 kts | 356° |
| 2026-04-25 13:40 | 31.20317 | -81.43277 | 34951 ft | 418 kts | 359° |
| 2026-04-25 13:41 | 31.26095 | -81.42553 | 34960 ft | 420 kts | 13° |
| 2026-04-25 13:41 | 31.31579 | -81.40185 | 34964 ft | 422 kts | 22° |
| 2026-04-25 13:42 | 31.36921 | -81.37313 | 34960 ft | 422 kts | 23° |
| 2026-04-25 13:42 | 31.42239 | -81.34379 | 34961 ft | 422 kts | 23° |
| 2026-04-25 13:43 | 31.47563 | -81.31461 | 34959 ft | 422 kts | 23° |
| 2026-04-25 13:43 | 31.52892 | -81.28558 | 34954 ft | 422 kts | 23° |
| 2026-04-25 13:44 | 31.58227 | -81.25655 | 34943 ft | 422 kts | 23° |
| 2026-04-25 13:44 | 31.63561 | -81.22748 | 34943 ft | 422 kts | 23° |
| 2026-04-25 13:45 | 31.68811 | -81.19884 | 34934 ft | 422 kts | 23° |
| 2026-04-25 13:45 | 31.74100 | -81.17000 | 34927 ft | 422 kts | 23° |
| 2026-04-25 13:46 | 31.79426 | -81.14080 | 34922 ft | 422 kts | 23° |
| 2026-04-25 13:46 | 31.84760 | -81.11154 | 35055 ft | 427 kts | 23° |
| 2026-04-25 13:46 | 31.87472 | -81.09667 | 35181 ft | 432 kts | 23° |
| 2026-04-25 13:47 | 31.90206 | -81.08166 | 35322 ft | 436 kts | 23° |
| 2026-04-25 13:47 | 31.92974 | -81.06647 | 35451 ft | 441 kts | 23° |
| 2026-04-25 13:47 | 31.95778 | -81.05106 | 35592 ft | 446 kts | 23° |
| 2026-04-25 13:47 | 31.98599 | -81.03555 | 35727 ft | 451 kts | 23° |
| 2026-04-25 13:48 | 32.01462 | -81.01981 | 35857 ft | 455 kts | 23° |
| 2026-04-25 13:48 | 32.04339 | -81.00387 | 35978 ft | 460 kts | 23° |
| 2026-04-25 13:48 | 32.07245 | -80.98760 | 36108 ft | 464 kts | 24° |
| 2026-04-25 13:48 | 32.10168 | -80.97117 | 36233 ft | 468 kts | 24° |
| 2026-04-25 13:49 | 32.13121 | -80.95456 | 36384 ft | 471 kts | 24° |
| 2026-04-25 13:49 | 32.16087 | -80.93788 | 36649 ft | 472 kts | 23° |
| 2026-04-25 13:49 | 32.19055 | -80.92119 | 36893 ft | 473 kts | 23° |
| 2026-04-25 13:50 | 32.24992 | -80.88784 | 36945 ft | 472 kts | 23° |
| 2026-04-25 13:50 | 32.30918 | -80.85452 | 36945 ft | 472 kts | 23° |
| 2026-04-25 13:51 | 32.36857 | -80.82110 | 36942 ft | 472 kts | 23° |
| 2026-04-25 13:51 | 32.42796 | -80.78763 | 36947 ft | 472 kts | 23° |
| 2026-04-25 13:52 | 32.48733 | -80.75411 | 36943 ft | 473 kts | 23° |
| 2026-04-25 13:52 | 32.54630 | -80.72076 | 36944 ft | 473 kts | 23° |
| 2026-04-25 13:53 | 32.60557 | -80.68720 | 36943 ft | 473 kts | 24° |
| 2026-04-25 13:53 | 32.66498 | -80.65350 | 36940 ft | 474 kts | 23° |
| 2026-04-25 13:54 | 32.72051 | -80.61074 | 36943 ft | 478 kts | 39° |
| 2026-04-25 13:54 | 32.76671 | -80.55348 | 36945 ft | 481 kts | 46° |
| 2026-04-25 13:55 | 32.81084 | -80.49355 | 36945 ft | 482 kts | 47° |
| 2026-04-25 13:55 | 32.85480 | -80.43323 | 36941 ft | 482 kts | 47° |
| 2026-04-25 13:56 | 32.89888 | -80.37308 | 36923 ft | 482 kts | 47° |
| 2026-04-25 13:56 | 32.94288 | -80.31318 | 36924 ft | 483 kts | 47° |
| 2026-04-25 13:57 | 32.98707 | -80.25300 | 36928 ft | 483 kts | 47° |
| 2026-04-25 13:57 | 33.03135 | -80.19260 | 36926 ft | 483 kts | 47° |
| 2026-04-25 13:58 | 33.07551 | -80.13225 | 36926 ft | 483 kts | 47° |
| 2026-04-25 13:58 | 33.11966 | -80.07186 | 36944 ft | 483 kts | 47° |
| 2026-04-25 13:59 | 33.16380 | -80.01133 | 36941 ft | 483 kts | 47° |
| 2026-04-25 13:59 | 33.20792 | -79.95069 | 36941 ft | 483 kts | 47° |
| 2026-04-25 14:00 | 33.23709 | -79.91054 | 36944 ft | 483 kts | 47° |
| 2026-04-25 14:00 | 33.29599 | -79.82940 | 36935 ft | 483 kts | 47° |
| 2026-04-25 14:01 | 33.33997 | -79.76866 | 36933 ft | 483 kts | 47° |
| 2026-04-25 14:01 | 33.38400 | -79.70783 | 36926 ft | 483 kts | 47° |
| 2026-04-25 14:02 | 33.42726 | -79.64788 | 36932 ft | 484 kts | 47° |
| 2026-04-25 14:02 | 33.47121 | -79.58682 | 36934 ft | 484 kts | 47° |
| 2026-04-25 14:03 | 33.50765 | -79.53616 | 36936 ft | 484 kts | 47° |
| 2026-04-25 14:03 | 33.55167 | -79.47486 | 36936 ft | 484 kts | 47° |
| 2026-04-25 14:04 | 33.59558 | -79.41365 | 36935 ft | 484 kts | 47° |
| 2026-04-25 14:04 | 33.63954 | -79.35226 | 36932 ft | 484 kts | 47° |
| 2026-04-25 14:05 | 33.68348 | -79.29081 | 36940 ft | 484 kts | 47° |
| 2026-04-25 14:05 | 33.72741 | -79.22948 | 36943 ft | 485 kts | 48° |
| 2026-04-25 14:06 | 33.77132 | -79.16784 | 36945 ft | 485 kts | 48° |
| 2026-04-25 14:06 | 33.81519 | -79.10614 | 36943 ft | 485 kts | 48° |
| 2026-04-25 14:07 | 33.85910 | -79.04436 | 36944 ft | 486 kts | 48° |
| 2026-04-25 14:07 | 33.90303 | -78.98248 | 36940 ft | 486 kts | 48° |
| 2026-04-25 14:08 | 33.94691 | -78.92055 | 36938 ft | 486 kts | 48° |
| 2026-04-25 14:08 | 33.99076 | -78.85853 | 36930 ft | 486 kts | 48° |
| 2026-04-25 14:09 | 34.03458 | -78.79647 | 36930 ft | 486 kts | 48° |
| 2026-04-25 14:09 | 34.07844 | -78.73424 | 36934 ft | 487 kts | 48° |
| 2026-04-25 14:10 | 34.12196 | -78.67238 | 36941 ft | 487 kts | 48° |
| 2026-04-25 14:10 | 34.16582 | -78.60992 | 36940 ft | 487 kts | 48° |
| 2026-04-25 14:11 | 34.20966 | -78.54739 | 36938 ft | 488 kts | 48° |
| 2026-04-25 14:11 | 34.25112 | -78.48243 | 36939 ft | 491 kts | 57° |
| 2026-04-25 14:12 | 34.28220 | -78.40884 | 36930 ft | 492 kts | 63° |
| 2026-04-25 14:12 | 34.31108 | -78.33365 | 36927 ft | 493 kts | 63° |
| 2026-04-25 14:13 | 34.33969 | -78.25819 | 36925 ft | 493 kts | 63° |
| 2026-04-25 14:13 | 34.36839 | -78.18283 | 36926 ft | 493 kts | 63° |
| 2026-04-25 14:14 | 34.39714 | -78.10755 | 36930 ft | 493 kts | 63° |
| 2026-04-25 14:14 | 34.42590 | -78.03214 | 36931 ft | 493 kts | 63° |
| 2026-04-25 14:15 | 34.45462 | -77.95669 | 36932 ft | 493 kts | 63° |
| 2026-04-25 14:15 | 34.48328 | -77.88116 | 36936 ft | 493 kts | 63° |
| 2026-04-25 14:16 | 34.51186 | -77.80568 | 36925 ft | 493 kts | 63° |
| 2026-04-25 14:16 | 34.54046 | -77.73001 | 36930 ft | 493 kts | 64° |
| 2026-04-25 14:17 | 34.57656 | -77.66003 | 36931 ft | 488 kts | 47° |
| 2026-04-25 14:17 | 34.62417 | -77.60142 | 36933 ft | 487 kts | 41° |
| 2026-04-25 14:18 | 34.67318 | -77.54541 | 36936 ft | 487 kts | 41° |
| 2026-04-25 14:18 | 34.72266 | -77.48915 | 36931 ft | 487 kts | 41° |
| 2026-04-25 14:19 | 34.77196 | -77.43261 | 36932 ft | 487 kts | 41° |
| 2026-04-25 14:19 | 34.82115 | -77.37586 | 36932 ft | 487 kts | 41° |
| 2026-04-25 14:20 | 34.87036 | -77.31897 | 36932 ft | 488 kts | 41° |
| 2026-04-25 14:20 | 34.91956 | -77.26196 | 36927 ft | 488 kts | 41° |
| 2026-04-25 14:21 | 34.96840 | -77.20533 | 36933 ft | 488 kts | 41° |
| 2026-04-25 14:21 | 35.01770 | -77.14802 | 36933 ft | 488 kts | 41° |
| 2026-04-25 14:22 | 35.06682 | -77.09083 | 36936 ft | 489 kts | 41° |
| 2026-04-25 14:22 | 35.11605 | -77.03341 | 36935 ft | 489 kts | 41° |
| 2026-04-25 14:23 | 35.16521 | -76.97600 | 36935 ft | 489 kts | 41° |
| 2026-04-25 14:23 | 35.21436 | -76.91848 | 36928 ft | 489 kts | 41° |
| 2026-04-25 14:24 | 35.26348 | -76.86091 | 36925 ft | 489 kts | 41° |
| 2026-04-25 14:24 | 35.31264 | -76.80318 | 36911 ft | 489 kts | 41° |
| 2026-04-25 14:25 | 35.36179 | -76.74533 | 36907 ft | 490 kts | 41° |
| 2026-04-25 14:25 | 35.41096 | -76.68739 | 36905 ft | 490 kts | 41° |
| 2026-04-25 14:26 | 35.46009 | -76.62939 | 36905 ft | 491 kts | 41° |
| 2026-04-25 14:26 | 35.50926 | -76.57123 | 36907 ft | 491 kts | 41° |
| 2026-04-25 14:27 | 35.55849 | -76.51291 | 36900 ft | 491 kts | 41° |
| 2026-04-25 14:27 | 35.60786 | -76.45574 | 36905 ft | 489 kts | 36° |
| 2026-04-25 14:28 | 35.66248 | -76.40613 | 36902 ft | 487 kts | 32° |
| 2026-04-25 14:28 | 35.71798 | -76.35829 | 36901 ft | 487 kts | 31° |
| 2026-04-25 14:29 | 35.77374 | -76.31053 | 36905 ft | 487 kts | 31° |
| 2026-04-25 14:29 | 35.82933 | -76.26269 | 36901 ft | 488 kts | 31° |
| 2026-04-25 14:30 | 35.87556 | -76.22275 | 36899 ft | 488 kts | 31° |
| 2026-04-25 14:30 | 35.96836 | -76.14234 | 36891 ft | 488 kts | 31° |
| 2026-04-25 14:31 | 36.02390 | -76.09409 | 36896 ft | 488 kts | 31° |
| 2026-04-25 14:31 | 36.07949 | -76.04573 | 36890 ft | 489 kts | 31° |
| 2026-04-25 14:32 | 36.13433 | -75.99794 | 36897 ft | 489 kts | 31° |
| 2026-04-25 14:32 | 36.18988 | -75.94945 | 36894 ft | 489 kts | 31° |
| 2026-04-25 14:33 | 36.24543 | -75.90087 | 36904 ft | 489 kts | 31° |
| 2026-04-25 14:33 | 36.30277 | -75.85622 | 36908 ft | 485 kts | 26° |
| 2026-04-25 14:34 | 36.36133 | -75.81458 | 36903 ft | 485 kts | 25° |
| 2026-04-25 14:34 | 36.42010 | -75.77325 | 36902 ft | 485 kts | 25° |
| 2026-04-25 14:35 | 36.47887 | -75.73181 | 36900 ft | 485 kts | 25° |
| 2026-04-25 14:35 | 36.53711 | -75.69059 | 36893 ft | 485 kts | 25° |
| 2026-04-25 14:36 | 36.59570 | -75.64901 | 36890 ft | 485 kts | 25° |
| 2026-04-25 14:36 | 36.65430 | -75.60734 | 36890 ft | 485 kts | 25° |
| 2026-04-25 14:37 | 36.71323 | -75.56536 | 36891 ft | 485 kts | 25° |
| 2026-04-25 14:37 | 36.77176 | -75.52360 | 36891 ft | 485 kts | 25° |
| 2026-04-25 14:38 | 36.83025 | -75.48180 | 36892 ft | 485 kts | 25° |
| 2026-04-25 14:38 | 36.88880 | -75.43987 | 36903 ft | 485 kts | 25° |
| 2026-04-25 14:39 | 36.94732 | -75.39790 | 36893 ft | 485 kts | 25° |
| 2026-04-25 14:39 | 37.00577 | -75.35590 | 36897 ft | 485 kts | 25° |
| 2026-04-25 14:40 | 37.06422 | -75.31382 | 36900 ft | 485 kts | 25° |
| 2026-04-25 14:40 | 37.12226 | -75.27196 | 36903 ft | 485 kts | 25° |
| 2026-04-25 14:41 | 37.18069 | -75.22976 | 36916 ft | 485 kts | 25° |
| 2026-04-25 14:41 | 37.23918 | -75.18742 | 36910 ft | 485 kts | 24° |
| 2026-04-25 14:42 | 37.27722 | -75.15984 | 36917 ft | 485 kts | 24° |
| 2026-04-25 14:42 | 37.35496 | -75.10339 | 36922 ft | 485 kts | 24° |
| 2026-04-25 14:43 | 37.41347 | -75.06080 | 36925 ft | 485 kts | 24° |
| 2026-04-25 14:43 | 37.47183 | -75.01826 | 36927 ft | 484 kts | 24° |
| 2026-04-25 14:44 | 37.52068 | -74.98259 | 36930 ft | 484 kts | 24° |
| 2026-04-25 14:44 | 37.57860 | -74.94023 | 36929 ft | 484 kts | 24° |
| 2026-04-25 14:45 | 37.63695 | -74.89747 | 36933 ft | 484 kts | 24° |
| 2026-04-25 14:45 | 37.69611 | -74.85744 | 36941 ft | 481 kts | 20° |
| 2026-04-25 14:46 | 37.75609 | -74.81986 | 36944 ft | 481 kts | 20° |
| 2026-04-25 14:46 | 37.81605 | -74.78187 | 36947 ft | 481 kts | 21° |
| 2026-04-25 14:47 | 37.86554 | -74.74995 | 36951 ft | 481 kts | 21° |
| 2026-04-25 14:47 | 37.93518 | -74.70466 | 36957 ft | 481 kts | 21° |
| 2026-04-25 14:48 | 37.99377 | -74.66646 | 36963 ft | 481 kts | 21° |
| 2026-04-25 14:48 | 38.05330 | -74.62761 | 36965 ft | 481 kts | 21° |
| 2026-04-25 14:49 | 38.11281 | -74.58871 | 36972 ft | 481 kts | 21° |
| 2026-04-25 14:49 | 38.17236 | -74.54971 | 36977 ft | 481 kts | 21° |
| 2026-04-25 14:50 | 38.23181 | -74.51070 | 36981 ft | 481 kts | 21° |
| 2026-04-25 14:50 | 38.29128 | -74.47162 | 36987 ft | 480 kts | 21° |
| 2026-04-25 14:51 | 38.35068 | -74.43250 | 36991 ft | 480 kts | 21° |
| 2026-04-25 14:51 | 38.41003 | -74.39334 | 36994 ft | 480 kts | 21° |
| 2026-04-25 14:52 | 38.46912 | -74.35429 | 36999 ft | 480 kts | 21° |
| 2026-04-25 14:52 | 38.51858 | -74.32154 | 37001 ft | 480 kts | 21° |
| 2026-04-25 14:53 | 38.58745 | -74.27585 | 37009 ft | 479 kts | 20° |
| 2026-04-25 14:53 | 38.64701 | -74.23626 | 37011 ft | 479 kts | 20° |
| 2026-04-25 14:54 | 38.70586 | -74.19708 | 37014 ft | 479 kts | 20° |
| 2026-04-25 14:54 | 38.76495 | -74.15765 | 37024 ft | 479 kts | 20° |
| 2026-04-25 14:55 | 38.82406 | -74.11814 | 37027 ft | 479 kts | 20° |
| 2026-04-25 14:55 | 38.88307 | -74.07862 | 37025 ft | 478 kts | 20° |
| 2026-04-25 14:56 | 38.94206 | -74.03905 | 37031 ft | 478 kts | 20° |
| 2026-04-25 14:56 | 39.00065 | -73.99812 | 37036 ft | 483 kts | 26° |
| 2026-04-25 14:57 | 39.05663 | -73.94965 | 37045 ft | 485 kts | 27° |
| 2026-04-25 14:57 | 39.11204 | -73.89978 | 37048 ft | 486 kts | 28° |
| 2026-04-25 14:58 | 39.16727 | -73.84971 | 37058 ft | 486 kts | 28° |
| 2026-04-25 14:58 | 39.22230 | -73.79988 | 37052 ft | 486 kts | 28° |
| 2026-04-25 14:59 | 39.27761 | -73.74978 | 37054 ft | 486 kts | 28° |
| 2026-04-25 14:59 | 39.33298 | -73.69956 | 37057 ft | 486 kts | 28° |
| 2026-04-25 15:00 | 39.38728 | -73.65021 | 37067 ft | 486 kts | 28° |
| 2026-04-25 15:00 | 39.44263 | -73.59982 | 37058 ft | 486 kts | 28° |
| 2026-04-25 15:01 | 39.49785 | -73.54944 | 37071 ft | 486 kts | 28° |
| 2026-04-25 15:01 | 39.55309 | -73.49894 | 37294 ft | 486 kts | 28° |
| 2026-04-25 15:02 | 39.58067 | -73.47367 | 37671 ft | 484 kts | 28° |
| 2026-04-25 15:02 | 39.60807 | -73.44854 | 38036 ft | 482 kts | 28° |
| 2026-04-25 15:02 | 39.63544 | -73.42342 | 38391 ft | 481 kts | 28° |
| 2026-04-25 15:02 | 39.66241 | -73.39865 | 38726 ft | 479 kts | 28° |
| 2026-04-25 15:03 | 39.68994 | -73.37334 | 38985 ft | 479 kts | 28° |
| 2026-04-25 15:03 | 39.71675 | -73.34869 | 39082 ft | 480 kts | 28° |
| 2026-04-25 15:03 | 39.77150 | -73.29825 | 39085 ft | 478 kts | 28° |
| 2026-04-25 15:04 | 39.82202 | -73.23985 | 39090 ft | 499 kts | 44° |
| 2026-04-25 15:04 | 39.86453 | -73.16794 | 39090 ft | 507 kts | 47° |
| 2026-04-25 15:05 | 39.90557 | -73.09331 | 39087 ft | 506 kts | 48° |
| 2026-04-25 15:06 | 39.96678 | -72.98136 | 39093 ft | 505 kts | 48° |
| 2026-04-25 15:06 | 40.00774 | -72.90693 | 39098 ft | 504 kts | 48° |
| 2026-04-25 15:07 | 40.04868 | -72.83254 | 39103 ft | 504 kts | 48° |
| 2026-04-25 15:07 | 40.08949 | -72.75820 | 39105 ft | 503 kts | 48° |
| 2026-04-25 15:08 | 40.13025 | -72.68376 | 39108 ft | 503 kts | 48° |